DLH497 CYVR-EDDF
Flight info
| Callsign | DLH497 |
|---|---|
| Flight time | N/A |
| Altitude | 33000 |
| Route | DOLLR DCT GARRE DCT SEATN DCT 5230N12000W 58N110W 6230N10000W 65N090W/N0489F350 6630N08000W 6730N07000W/M084F350 DCT CANEL DCT 68N060W 68N050W 6730N04000W 66N030W/M084F370 64N020W DCT RATSU/N0490F370 DCT DEVBI DCT LONAM DCT SOGPO DCT DIXAT DIXAT1A |
| Aircraft | B744/H-SDE3FGHIM1M2RWXY/LB1 |
Departure
| Time | 2026-05-05 20:19 |
|---|---|
| Airport | Vancouver International Airport (CYVR) |
Arrival
| Time | N/A |
|---|---|
| Airport | Frankfurt Main Airport (EDDF) |
| Time | Latitude | Longitude | Altitude | Speed | Heading |
|---|---|---|---|---|---|
| 2026-05-05 19:57 | 49.19844 | -123.17338 | 19 ft | 0 kts | 217° |
| 2026-05-05 20:02 | 49.19845 | -123.17338 | 19 ft | 0 kts | 217° |
| 2026-05-05 20:03 | 49.19851 | -123.17330 | 19 ft | 2 kts | 217° |
| 2026-05-05 20:03 | 49.19863 | -123.17316 | 19 ft | 2 kts | 217° |
| 2026-05-05 20:04 | 49.19875 | -123.17303 | 19 ft | 2 kts | 217° |
| 2026-05-05 20:04 | 49.19887 | -123.17289 | 19 ft | 2 kts | 217° |
| 2026-05-05 20:04 | 49.19898 | -123.17273 | 19 ft | 2 kts | 239° |
| 2026-05-05 20:04 | 49.19904 | -123.17252 | 19 ft | 2 kts | 259° |
| 2026-05-05 20:05 | 49.19904 | -123.17230 | 19 ft | 1 kts | 278° |
| 2026-05-05 20:05 | 49.19903 | -123.17221 | 19 ft | 0 kts | 281° |
| 2026-05-05 20:05 | 49.19903 | -123.17220 | 19 ft | 0 kts | 281° |
| 2026-05-05 20:08 | 49.19903 | -123.17221 | 19 ft | 0 kts | 281° |
| 2026-05-05 20:09 | 49.19904 | -123.17230 | 19 ft | 2 kts | 281° |
| 2026-05-05 20:09 | 49.19912 | -123.17290 | 19 ft | 9 kts | 281° |
| 2026-05-05 20:09 | 49.19936 | -123.17388 | 19 ft | 9 kts | 322° |
| 2026-05-05 20:09 | 49.19992 | -123.17415 | 19 ft | 7 kts | 315° |
| 2026-05-05 20:10 | 49.20008 | -123.17485 | 19 ft | 7 kts | 279° |
| 2026-05-05 20:10 | 49.20019 | -123.17587 | 19 ft | 12 kts | 279° |
| 2026-05-05 20:10 | 49.20036 | -123.17741 | 19 ft | 17 kts | 280° |
| 2026-05-05 20:10 | 49.20059 | -123.17951 | 21 ft | 22 kts | 279° |
| 2026-05-05 20:11 | 49.20089 | -123.18211 | 20 ft | 27 kts | 280° |
| 2026-05-05 20:11 | 49.20120 | -123.18494 | 21 ft | 24 kts | 280° |
| 2026-05-05 20:11 | 49.20150 | -123.18742 | 21 ft | 22 kts | 281° |
| 2026-05-05 20:11 | 49.20174 | -123.18943 | 22 ft | 12 kts | 281° |
| 2026-05-05 20:12 | 49.20145 | -123.19029 | 21 ft | 9 kts | 199° |
| 2026-05-05 20:12 | 49.20076 | -123.19050 | 20 ft | 11 kts | 189° |
| 2026-05-05 20:12 | 49.19984 | -123.19073 | 19 ft | 15 kts | 189° |
| 2026-05-05 20:12 | 49.19866 | -123.19103 | 19 ft | 18 kts | 190° |
| 2026-05-05 20:13 | 49.19730 | -123.19138 | 19 ft | 20 kts | 189° |
| 2026-05-05 20:13 | 49.19585 | -123.19178 | 19 ft | 22 kts | 190° |
| 2026-05-05 20:13 | 49.19426 | -123.19218 | 19 ft | 22 kts | 190° |
| 2026-05-05 20:13 | 49.19327 | -123.19293 | 19 ft | 13 kts | 245° |
| 2026-05-05 20:14 | 49.19307 | -123.19433 | 19 ft | 13 kts | 260° |
| 2026-05-05 20:14 | 49.19289 | -123.19574 | 19 ft | 14 kts | 259° |
| 2026-05-05 20:14 | 49.19269 | -123.19731 | 21 ft | 15 kts | 259° |
| 2026-05-05 20:14 | 49.19247 | -123.19913 | 22 ft | 19 kts | 259° |
| 2026-05-05 20:15 | 49.19221 | -123.20121 | 24 ft | 19 kts | 258° |
| 2026-05-05 20:15 | 49.19198 | -123.20315 | 25 ft | 17 kts | 260° |
| 2026-05-05 20:15 | 49.19178 | -123.20483 | 25 ft | 14 kts | 264° |
| 2026-05-05 20:15 | 49.19190 | -123.20622 | 23 ft | 12 kts | 283° |
| 2026-05-05 20:16 | 49.19206 | -123.20746 | 21 ft | 10 kts | 267° |
| 2026-05-05 20:16 | 49.19157 | -123.20832 | 19 ft | 12 kts | 196° |
| 2026-05-05 20:16 | 49.19072 | -123.20850 | 19 ft | 12 kts | 186° |
| 2026-05-05 20:16 | 49.19010 | -123.20798 | 19 ft | 10 kts | 106° |
| 2026-05-05 20:17 | 49.19004 | -123.20737 | 20 ft | 0 kts | 98° |
| 2026-05-05 20:17 | 49.19004 | -123.20736 | 20 ft | 0 kts | 98° |
| 2026-05-05 20:17 | 49.18998 | -123.20672 | 22 ft | 14 kts | 98° |
| 2026-05-05 20:18 | 49.18959 | -123.20319 | 25 ft | 61 kts | 100° |
| 2026-05-05 20:18 | 49.18847 | -123.19340 | 19 ft | 117 kts | 100° |
| 2026-05-05 20:18 | 49.18679 | -123.17895 | 25 ft | 162 kts | 100° |
| 2026-05-05 20:18 | 49.18487 | -123.16070 | 436 ft | 173 kts | 99° |
| 2026-05-05 20:19 | 49.18329 | -123.14329 | 908 ft | 164 kts | 99° |
| 2026-05-05 20:19 | 49.18173 | -123.12526 | 1064 ft | 177 kts | 96° |
| 2026-05-05 20:19 | 49.18022 | -123.10582 | 1427 ft | 188 kts | 97° |
| 2026-05-05 20:19 | 49.17877 | -123.08493 | 1756 ft | 205 kts | 97° |
| 2026-05-05 20:20 | 49.17825 | -123.06279 | 2159 ft | 217 kts | 81° |
| 2026-05-05 20:20 | 49.18383 | -123.04101 | 2663 ft | 223 kts | 54° |
| 2026-05-05 20:20 | 49.19520 | -123.02477 | 3260 ft | 225 kts | 31° |
| 2026-05-05 20:20 | 49.20893 | -123.01311 | 3830 ft | 228 kts | 27° |
| 2026-05-05 20:21 | 49.22329 | -123.00208 | 4379 ft | 232 kts | 24° |
| 2026-05-05 20:21 | 49.23780 | -122.99103 | 4882 ft | 238 kts | 30° |
| 2026-05-05 20:21 | 49.25263 | -122.97890 | 5355 ft | 244 kts | 24° |
| 2026-05-05 20:21 | 49.26833 | -122.96744 | 5805 ft | 252 kts | 24° |
| 2026-05-05 20:22 | 49.28438 | -122.95538 | 6209 ft | 262 kts | 24° |
| 2026-05-05 20:22 | 49.30093 | -122.94292 | 6681 ft | 266 kts | 24° |
| 2026-05-05 20:22 | 49.31745 | -122.93045 | 7230 ft | 267 kts | 24° |
| 2026-05-05 20:22 | 49.33435 | -122.91773 | 7728 ft | 270 kts | 24° |
| 2026-05-05 20:23 | 49.35140 | -122.90496 | 8190 ft | 274 kts | 24° |
| 2026-05-05 20:23 | 49.36863 | -122.89216 | 8615 ft | 279 kts | 24° |
| 2026-05-05 20:23 | 49.38629 | -122.87901 | 9010 ft | 282 kts | 24° |
| 2026-05-05 20:23 | 49.40418 | -122.86575 | 9449 ft | 284 kts | 24° |
| 2026-05-05 20:24 | 49.42194 | -122.85262 | 9843 ft | 285 kts | 24° |
| 2026-05-05 20:24 | 49.43900 | -122.83644 | 10210 ft | 289 kts | 41° |
| 2026-05-05 20:24 | 49.45184 | -122.81210 | 10551 ft | 296 kts | 60° |
| 2026-05-05 20:24 | 49.45874 | -122.78210 | 10858 ft | 304 kts | 79° |
| 2026-05-05 20:25 | 49.45893 | -122.74899 | 11094 ft | 316 kts | 98° |
| 2026-05-05 20:25 | 49.45209 | -122.71621 | 11221 ft | 330 kts | 116° |
| 2026-05-05 20:25 | 49.43847 | -122.68697 | 11369 ft | 341 kts | 134° |
| 2026-05-05 20:25 | 49.41936 | -122.66509 | 11698 ft | 344 kts | 152° |
| 2026-05-05 20:26 | 49.39652 | -122.65243 | 11971 ft | 348 kts | 168° |
| 2026-05-05 20:26 | 49.37261 | -122.64590 | 12351 ft | 349 kts | 169° |
| 2026-05-05 20:26 | 49.34881 | -122.63784 | 12651 ft | 352 kts | 165° |
| 2026-05-05 20:26 | 49.32492 | -122.62801 | 13037 ft | 354 kts | 163° |
| 2026-05-05 20:27 | 49.30135 | -122.61665 | 13395 ft | 357 kts | 160° |
| 2026-05-05 20:27 | 49.27814 | -122.60342 | 13751 ft | 359 kts | 158° |
| 2026-05-05 20:27 | 49.25385 | -122.59345 | 14110 ft | 362 kts | 174° |
| 2026-05-05 20:27 | 49.22855 | -122.59416 | 14460 ft | 363 kts | 191° |
| 2026-05-05 20:28 | 49.20426 | -122.60571 | 14831 ft | 363 kts | 208° |
| 2026-05-05 20:28 | 49.18341 | -122.62675 | 15211 ft | 360 kts | 225° |
| 2026-05-05 20:28 | 49.16730 | -122.65575 | 15619 ft | 356 kts | 243° |
| 2026-05-05 20:28 | 49.15736 | -122.69006 | 16016 ft | 351 kts | 259° |
| 2026-05-05 20:29 | 49.15438 | -122.72707 | 16376 ft | 345 kts | 277° |
| 2026-05-05 20:29 | 49.15856 | -122.76279 | 16758 ft | 339 kts | 293° |
| 2026-05-05 20:29 | 49.16925 | -122.79430 | 17187 ft | 335 kts | 310° |
| 2026-05-05 20:29 | 49.18566 | -122.81948 | 17565 ft | 333 kts | 326° |
| 2026-05-05 20:30 | 49.20602 | -122.83572 | 17921 ft | 333 kts | 343° |
| 2026-05-05 20:30 | 49.22912 | -122.84186 | 18265 ft | 335 kts | 359° |
| 2026-05-05 20:30 | 49.25236 | -122.83714 | 18623 ft | 337 kts | 13° |
| 2026-05-05 20:30 | 49.27499 | -122.82687 | 19060 ft | 338 kts | 14° |
| 2026-05-05 20:31 | 49.29765 | -122.81651 | 19501 ft | 339 kts | 14° |
| 2026-05-05 20:31 | 49.32059 | -122.80685 | 19848 ft | 341 kts | 11° |
| 2026-05-05 20:31 | 49.34329 | -122.79588 | 20114 ft | 347 kts | 23° |